Onondaga, Michigan
Current Conditions -  °F | °C
As of 6:53 PM on Wednesday 28 Jan 2015 (Local Time) from KTEW Reporting Station
Clear Clear  
Wind Chill: -9°   Ceiling: Unl
Heat Index: -4°   Visibility: 10mi
Dew Point: -13°   Wind: 8mph
Humidity: 50%   Direction: 150°SSE
Pressure: 30.18"   Gusts: NA
Location:  42.44°N, 84.56°W
Report Text: KTEW 282353Z AUTO 15007KT 10SM CLR M04/M13 A3018 RMK AO2 T10411131
Loading
Personal Weather Stations






























Interactive Weather Map New forecast layout! Learn more

10-Day Weather Forecast

Advertisements
Track Severe Weather on mobile